Time;durP1;ratioP1;P1;durP2;ratioP2;P2;SDS_P1;SDS_P2;PMS_P1;PMS_P2;Temp;Humidity;BMP_temperature;BMP_pressure;BME280_temperature;BME280_humidity;BME280_pressure;Samples;Min_cycle;Max_cycle;Signal;HPM_P1;HPM_P2
2023/05/21 00:02:08;;;;;;;7.20;5.20;;;;;;;;;;107609;283;42903;-45
2023/05/21 00:04:46;;;;;;;6.70;5.10;;;;;;;;;;107642;282;38565;-45
2023/05/21 00:07:22;;;;;;;6.80;5.10;;;;;;;;;;107616;283;39763;-44
2023/05/21 00:09:56;;;;;;;6.00;5.10;;;;;;;;;;107461;287;43169;-44
2023/05/21 00:12:34;;;;;;;6.80;4.70;;;;;;;;;;107614;285;42796;-45
2023/05/21 00:15:11;;;;;;;6.90;5.00;;;;;;;;;;107526;283;191933;-43
2023/05/21 00:17:48;;;;;;;7.20;4.80;;;;;;;;;;107648;286;39689;-47
2023/05/21 00:20:23;;;;;;;7.50;5.00;;;;;;;;;;107567;286;44008;-43
2023/05/21 00:22:58;;;;;;;7.10;4.80;;;;;;;;;;107619;283;42545;-47
2023/05/21 00:25:32;;;;;;;6.70;4.90;;;;;;;;;;107649;285;38905;-45
2023/05/21 00:28:06;;;;;;;6.30;4.80;;;;;;;;;;107612;278;39831;-44
2023/05/21 00:30:42;;;;;;;6.80;5.00;;;;;;;;;;107605;283;43907;-44
2023/05/21 00:33:20;;;;;;;5.90;4.50;;;;;;;;;;107634;286;43311;-44
2023/05/21 00:36:00;;;;;;;6.30;4.90;;;;;;;;;;107645;283;39043;-44
2023/05/21 00:38:36;;;;;;;6.70;4.80;;;;;;;;;;107640;286;39864;-44
2023/05/21 00:41:12;;;;;;;6.10;5.00;;;;;;;;;;107611;283;43051;-45
2023/05/21 00:43:50;;;;;;;5.90;4.50;;;;;;;;;;107631;286;42275;-44
2023/05/21 00:46:27;;;;;;;6.70;5.00;;;;;;;;;;107609;283;38800;-47
2023/05/21 00:49:05;;;;;;;6.40;4.80;;;;;;;;;;107665;286;40104;-46
2023/05/21 00:51:44;;;;;;;6.40;4.60;;;;;;;;;;107497;283;175538;-44
2023/05/21 00:54:19;;;;;;;5.90;4.60;;;;;;;;;;107647;283;42146;-46
2023/05/21 00:56:55;;;;;;;6.50;4.70;;;;;;;;;;107612;283;38793;-46
2023/05/21 00:59:30;;;;;;;6.00;4.60;;;;;;;;;;107625;282;40197;-46
2023/05/21 01:02:08;;;;;;;6.00;4.60;;;;;;;;;;107590;283;43079;-43
2023/05/21 01:04:42;;;;;;;5.80;4.60;;;;;;;;;;107623;283;42226;-45
2023/05/21 01:07:17;;;;;;;5.80;4.80;;;;;;;;;;106985;286;890856;-47
2023/05/21 01:09:54;;;;;;;6.70;4.70;;;;;;;;;;107606;282;39739;-44
2023/05/21 01:12:31;;;;;;;5.60;4.50;;;;;;;;;;107461;283;175585;-45
2023/05/21 01:15:07;;;;;;;6.20;4.50;;;;;;;;;;107219;285;532558;-44
2023/05/21 01:17:44;;;;;;;5.70;4.40;;;;;;;;;;107572;286;38818;-48
2023/05/21 01:20:21;;;;;;;6.10;4.50;;;;;;;;;;107623;282;39702;-43
2023/05/21 01:23:00;;;;;;;6.10;4.50;;;;;;;;;;107594;283;42949;-48
2023/05/21 01:25:35;;;;;;;5.60;4.40;;;;;;;;;;107602;283;42068;-43
2023/05/21 01:28:13;;;;;;;6.80;4.20;;;;;;;;;;107622;283;38834;-46
2023/05/21 01:30:52;;;;;;;5.90;4.40;;;;;;;;;;107632;286;40005;-43
2023/05/21 01:33:34;;;;;;;5.50;4.30;;;;;;;;;;107594;286;49305;-43
2023/05/21 01:36:20;;;;;;;5.70;4.30;;;;;;;;;;107618;282;42226;-46
2023/05/21 01:39:02;;;;;;;5.80;4.20;;;;;;;;;;107574;286;38806;-47
2023/05/21 01:41:40;;;;;;;6.40;4.30;;;;;;;;;;107598;286;39699;-48
2023/05/21 01:44:18;;;;;;;6.00;4.30;;;;;;;;;;107634;283;42966;-45
2023/05/21 01:46:55;;;;;;;5.60;4.40;;;;;;;;;;107658;282;42175;-46
2023/05/21 01:49:32;;;;;;;5.80;4.30;;;;;;;;;;107613;286;39079;-49
2023/05/21 01:52:08;;;;;;;5.80;4.40;;;;;;;;;;107590;285;39728;-47
2023/05/21 01:54:44;;;;;;;6.10;4.20;;;;;;;;;;107520;285;175550;-47
2023/05/21 01:57:18;;;;;;;6.40;4.30;;;;;;;;;;107609;286;42264;-48
2023/05/21 01:59:56;;;;;;;5.90;4.10;;;;;;;;;;107630;283;39233;-46
2023/05/21 02:02:32;;;;;;;6.00;4.20;;;;;;;;;;107588;285;40897;-49
2023/05/21 02:05:08;;;;;;;6.00;4.50;;;;;;;;;;107639;282;42890;-46
2023/05/21 02:07:44;;;;;;;5.40;3.80;;;;;;;;;;107632;283;42160;-47
2023/05/21 02:10:20;;;;;;;5.60;4.10;;;;;;;;;;107615;286;38834;-49
2023/05/21 02:12:54;;;;;;;5.80;4.40;;;;;;;;;;107597;286;39854;-46
2023/05/21 02:15:29;;;;;;;6.40;4.40;;;;;;;;;;107615;283;43296;-47
2023/05/21 02:18:05;;;;;;;5.50;4.10;;;;;;;;;;107658;286;42272;-48
2023/05/21 02:20:39;;;;;;;5.90;4.20;;;;;;;;;;107618;287;38895;-47
2023/05/21 02:23:17;;;;;;;5.60;3.90;;;;;;;;;;107611;282;39981;-49
2023/05/21 02:25:53;;;;;;;5.50;3.80;;;;;;;;;;107678;286;42857;-48
2023/05/21 02:28:28;;;;;;;5.20;4.10;;;;;;;;;;107602;285;44216;-48
2023/05/21 02:31:03;;;;;;;5.30;4.30;;;;;;;;;;107613;283;38818;-46
2023/05/21 02:33:39;;;;;;;5.80;4.00;;;;;;;;;;107616;283;40793;-49
2023/05/21 02:36:17;;;;;;;5.60;4.10;;;;;;;;;;107638;286;42979;-49
2023/05/21 02:38:56;;;;;;;5.20;4.00;;;;;;;;;;107634;285;42334;-49
2023/05/21 02:41:31;;;;;;;5.30;4.10;;;;;;;;;;107646;278;38864;-47
2023/05/21 02:44:07;;;;;;;5.10;3.80;;;;;;;;;;107634;283;40893;-48
2023/05/21 02:46:43;;;;;;;5.40;3.90;;;;;;;;;;107633;286;42894;-50
2023/05/21 02:49:17;;;;;;;5.50;4.00;;;;;;;;;;107643;286;42157;-49
2023/05/21 02:51:52;;;;;;;5.40;3.90;;;;;;;;;;107618;283;38789;-49
2023/05/21 02:54:27;;;;;;;5.90;4.00;;;;;;;;;;107679;286;40947;-47
2023/05/21 02:57:02;;;;;;;5.40;4.00;;;;;;;;;;107686;283;43382;-47
2023/05/21 02:59:37;;;;;;;5.80;4.00;;;;;;;;;;107652;283;42561;-47
2023/05/21 03:02:15;;;;;;;5.30;3.80;;;;;;;;;;107655;286;38813;-50
2023/05/21 03:04:50;;;;;;;5.60;3.90;;;;;;;;;;107629;283;39653;-48
2023/05/21 03:07:25;;;;;;;6.60;4.00;;;;;;;;;;107720;286;42928;-50
2023/05/21 03:10:01;;;;;;;5.40;3.80;;;;;;;;;;107705;286;42144;-48
2023/05/21 03:12:36;;;;;;;5.50;3.80;;;;;;;;;;107010;286;891950;-50
2023/05/21 03:15:13;;;;;;;5.10;3.50;;;;;;;;;;107668;283;39671;-48
2023/05/21 03:17:49;;;;;;;5.40;3.70;;;;;;;;;;107659;285;42879;-50
2023/05/21 03:20:25;;;;;;;5.20;3.60;;;;;;;;;;107641;282;42250;-50
2023/05/21 03:23:03;;;;;;;4.90;3.70;;;;;;;;;;107639;283;39842;-47
2023/05/21 03:25:37;;;;;;;5.30;3.80;;;;;;;;;;107605;282;45555;-48
2023/05/21 03:28:13;;;;;;;5.10;3.60;;;;;;;;;;107643;285;42591;-48
2023/05/21 03:30:49;;;;;;;5.40;3.80;;;;;;;;;;107660;283;43258;-51
2023/05/21 03:33:26;;;;;;;5.20;3.80;;;;;;;;;;107723;283;40243;-47
2023/05/21 03:36:01;;;;;;;5.10;3.60;;;;;;;;;;107606;285;45412;-47
2023/05/21 03:38:37;;;;;;;5.80;3.70;;;;;;;;;;107676;285;44299;-49
2023/05/21 03:41:14;;;;;;;5.30;3.70;;;;;;;;;;107664;282;41886;-48
2023/05/21 03:43:49;;;;;;;5.00;3.40;;;;;;;;;;107615;285;38961;-49
2023/05/21 03:46:23;;;;;;;5.10;3.70;;;;;;;;;;107651;282;39662;-49
2023/05/21 03:48:59;;;;;;;4.80;3.50;;;;;;;;;;107643;285;44362;-48
2023/05/21 03:51:35;;;;;;;5.10;3.80;;;;;;;;;;107029;278;890827;-46
2023/05/21 03:54:10;;;;;;;5.00;3.70;;;;;;;;;;107682;285;38946;-47
2023/05/21 03:56:44;;;;;;;4.80;3.70;;;;;;;;;;107661;286;47281;-46
2023/05/21 03:59:20;;;;;;;5.50;3.80;;;;;;;;;;107447;285;44233;-49
2023/05/21 04:01:55;;;;;;;5.10;3.50;;;;;;;;;;107622;284;44332;-47
2023/05/21 04:04:32;;;;;;;5.20;3.70;;;;;;;;;;107666;283;40513;-46
2023/05/21 04:07:14;;;;;;;5.10;3.70;;;;;;;;;;107678;285;39714;-46
2023/05/21 04:09:51;;;;;;;4.90;3.60;;;;;;;;;;107709;285;42854;-44
2023/05/21 04:12:29;;;;;;;5.10;3.40;;;;;;;;;;107646;285;42148;-49
2023/05/21 04:15:04;;;;;;;5.20;3.70;;;;;;;;;;107409;285;39931;-47
2023/05/21 04:17:40;;;;;;;5.20;3.40;;;;;;;;;;107712;285;41084;-46
2023/05/21 04:20:16;;;;;;;5.30;3.80;;;;;;;;;;107650;282;42673;-47
2023/05/21 04:22:50;;;;;;;5.50;3.50;;;;;;;;;;107701;283;43224;-48
2023/05/21 04:25:26;;;;;;;5.40;3.50;;;;;;;;;;107669;286;38794;-48
2023/05/21 04:28:00;;;;;;;5.10;3.40;;;;;;;;;;107626;286;40863;-49
2023/05/21 04:30:36;;;;;;;5.70;3.90;;;;;;;;;;107654;283;43261;-46
2023/05/21 04:33:16;;;;;;;4.80;3.60;;;;;;;;;;107630;286;42167;-47
2023/05/21 04:35:53;;;;;;;5.00;3.50;;;;;;;;;;107589;286;38853;-47
2023/05/21 04:38:28;;;;;;;5.00;3.70;;;;;;;;;;107636;286;39639;-47
2023/05/21 04:41:05;;;;;;;5.30;3.50;;;;;;;;;;106963;283;892113;-49
2023/05/21 04:43:43;;;;;;;4.70;3.40;;;;;;;;;;107663;286;43238;-48
2023/05/21 04:46:17;;;;;;;5.40;3.40;;;;;;;;;;107640;283;39098;-47
2023/05/21 04:48:53;;;;;;;5.10;3.40;;;;;;;;;;107651;286;40786;-47
2023/05/21 04:51:32;;;;;;;5.50;3.70;;;;;;;;;;107689;286;43010;-48
2023/05/21 04:54:09;;;;;;;5.30;3.50;;;;;;;;;;107695;283;42154;-46
2023/05/21 04:56:46;;;;;;;5.70;3.90;;;;;;;;;;107627;283;40023;-50
2023/05/21 04:59:25;;;;;;;5.20;3.20;;;;;;;;;;107684;283;39967;-47
2023/05/21 05:02:01;;;;;;;5.10;3.30;;;;;;;;;;107634;285;42644;-46
2023/05/21 05:04:38;;;;;;;4.80;3.20;;;;;;;;;;107656;286;42313;-46
2023/05/21 05:07:15;;;;;;;13.20;4.00;;;;;;;;;;107618;285;39824;-47
2023/05/21 05:09:52;;;;;;;5.10;3.20;;;;;;;;;;107669;283;41242;-49
2023/05/21 05:12:28;;;;;;;5.50;3.50;;;;;;;;;;107666;283;43930;-49
2023/05/21 05:15:04;;;;;;;5.00;3.10;;;;;;;;;;107682;282;41891;-50
2023/05/21 05:17:38;;;;;;;4.90;3.40;;;;;;;;;;107648;286;38942;-47
2023/05/21 05:20:14;;;;;;;5.00;3.40;;;;;;;;;;107684;283;39701;-50
2023/05/21 05:22:48;;;;;;;4.70;3.20;;;;;;;;;;107721;283;44032;-49
2023/05/21 05:25:22;;;;;;;4.30;3.00;;;;;;;;;;107652;286;42311;-47
2023/05/21 05:27:56;;;;;;;5.50;3.30;;;;;;;;;;107652;286;38536;-47
2023/05/21 05:30:30;;;;;;;5.10;3.40;;;;;;;;;;107662;282;40136;-46
2023/05/21 05:33:05;;;;;;;5.00;3.20;;;;;;;;;;107685;283;42933;-50
2023/05/21 05:35:39;;;;;;;4.80;3.40;;;;;;;;;;107728;285;42392;-50
2023/05/21 05:38:16;;;;;;;4.80;2.90;;;;;;;;;;107662;282;38523;-47
2023/05/21 05:40:51;;;;;;;4.70;2.90;;;;;;;;;;107561;286;39855;-46
2023/05/21 05:43:26;;;;;;;4.30;3.10;;;;;;;;;;107525;286;43045;-48
2023/05/21 05:46:02;;;;;;;5.70;3.10;;;;;;;;;;107525;287;42164;-49
2023/05/21 05:48:37;;;;;;;5.40;3.20;;;;;;;;;;107538;286;38801;-47
2023/05/21 05:51:14;;;;;;;5.00;3.30;;;;;;;;;;107621;286;39753;-48
2023/05/21 05:53:49;;;;;;;4.60;3.30;;;;;;;;;;107589;286;43153;-47
2023/05/21 05:56:26;;;;;;;4.80;3.00;;;;;;;;;;107551;284;42317;-51
2023/05/21 05:59:03;;;;;;;4.50;3.00;;;;;;;;;;107584;284;44720;-50
2023/05/21 06:01:38;;;;;;;4.90;3.20;;;;;;;;;;107581;283;39849;-50
2023/05/21 06:04:15;;;;;;;5.10;3.30;;;;;;;;;;107538;286;42881;-49
2023/05/21 06:06:49;;;;;;;5.10;2.90;;;;;;;;;;107526;284;42176;-51
2023/05/21 06:09:28;;;;;;;4.60;3.00;;;;;;;;;;107469;286;44024;-47
2023/05/21 06:12:04;;;;;;;4.90;3.00;;;;;;;;;;107501;286;39855;-50
2023/05/21 06:14:40;;;;;;;5.00;2.90;;;;;;;;;;107522;286;43266;-49
2023/05/21 06:17:17;;;;;;;4.80;3.00;;;;;;;;;;107450;288;42222;-49
2023/05/21 06:19:51;;;;;;;4.20;2.90;;;;;;;;;;107463;284;45005;-48
2023/05/21 06:22:26;;;;;;;4.70;3.00;;;;;;;;;;107347;286;175619;-46
2023/05/21 06:25:00;;;;;;;5.00;2.90;;;;;;;;;;107500;284;42895;-47
2023/05/21 06:27:35;;;;;;;5.20;3.00;;;;;;;;;;107431;284;42269;-46
2023/05/21 06:30:12;;;;;;;4.40;2.90;;;;;;;;;;107515;286;45036;-43
2023/05/21 06:32:46;;;;;;;4.30;2.80;;;;;;;;;;107496;286;39720;-49
2023/05/21 06:35:22;;;;;;;4.60;2.80;;;;;;;;;;107545;284;43198;-49
2023/05/21 06:37:56;;;;;;;4.80;3.00;;;;;;;;;;107454;286;43520;-46
2023/05/21 06:40:31;;;;;;;5.00;2.90;;;;;;;;;;107580;285;45075;-46
2023/05/21 06:43:04;;;;;;;4.50;2.90;;;;;;;;;;107621;285;39697;-43
2023/05/21 06:45:39;;;;;;;4.30;2.90;;;;;;;;;;107618;285;42871;-46
2023/05/21 06:48:16;;;;;;;4.50;3.00;;;;;;;;;;107601;285;42178;-44
2023/05/21 06:50:52;;;;;;;4.70;2.90;;;;;;;;;;107607;286;44873;-45
2023/05/21 06:53:27;;;;;;;4.10;2.70;;;;;;;;;;107616;286;39744;-43
2023/05/21 06:56:02;;;;;;;4.90;2.90;;;;;;;;;;107491;286;175573;-43
2023/05/21 06:58:37;;;;;;;4.50;2.90;;;;;;;;;;107622;283;42440;-43
2023/05/21 07:01:12;;;;;;;4.60;3.00;;;;;;;;;;107655;286;44947;-44
2023/05/21 07:03:47;;;;;;;4.30;2.80;;;;;;;;;;107659;286;39720;-44
2023/05/21 07:06:22;;;;;;;4.50;2.80;;;;;;;;;;107687;286;44022;-45
2023/05/21 07:08:58;;;;;;;4.20;2.70;;;;;;;;;;107611;286;42297;-43
2023/05/21 07:11:33;;;;;;;4.10;2.50;;;;;;;;;;107660;285;45034;-44
2023/05/21 07:14:08;;;;;;;4.60;2.70;;;;;;;;;;107677;283;41070;-43
2023/05/21 07:16:45;;;;;;;4.30;2.60;;;;;;;;;;107635;286;42930;-44
2023/05/21 07:19:19;;;;;;;4.80;2.90;;;;;;;;;;107625;283;43295;-44
2023/05/21 07:21:55;;;;;;;4.50;2.50;;;;;;;;;;107676;286;39111;-43
2023/05/21 07:24:29;;;;;;;4.50;2.60;;;;;;;;;;107697;286;39680;-43
2023/05/21 07:27:05;;;;;;;4.90;2.90;;;;;;;;;;107692;283;42935;-43
2023/05/21 07:29:59;;;;;;;5.00;2.70;;;;;;;;;;107652;283;42145;-44
2023/05/21 07:32:34;;;;;;;4.30;2.50;;;;;;;;;;107671;286;38887;-44
2023/05/21 07:35:11;;;;;;;4.30;2.40;;;;;;;;;;107544;286;175554;-43
2023/05/21 07:37:48;;;;;;;4.30;2.40;;;;;;;;;;107511;286;43068;-44
2023/05/21 07:40:23;;;;;;;4.00;2.60;;;;;;;;;;107586;283;42113;-45
2023/05/21 07:43:00;;;;;;;4.30;2.50;;;;;;;;;;107652;286;38809;-43
2023/05/21 07:45:36;;;;;;;3.80;2.30;;;;;;;;;;107644;286;40035;-43
2023/05/21 07:48:11;;;;;;;4.40;2.40;;;;;;;;;;107660;283;42874;-43
2023/05/21 07:50:48;;;;;;;3.80;2.30;;;;;;;;;;107618;283;42194;-45
2023/05/21 07:53:23;;;;;;;4.10;2.40;;;;;;;;;;107666;286;39111;-45
2023/05/21 07:55:58;;;;;;;4.50;2.70;;;;;;;;;;107670;283;40905;-46
2023/05/21 07:58:35;;;;;;;4.50;2.50;;;;;;;;;;107654;286;42848;-43
2023/05/21 08:01:08;;;;;;;5.00;2.60;;;;;;;;;;107602;285;43376;-43
2023/05/21 08:03:42;;;;;;;5.20;2.80;;;;;;;;;;107456;285;39829;-44
2023/05/21 08:06:23;;;;;;;4.20;2.40;;;;;;;;;;107624;287;39835;-46
2023/05/21 08:08:58;;;;;;;4.40;2.50;;;;;;;;;;107614;286;44033;-43
2023/05/21 08:11:32;;;;;;;4.30;2.70;;;;;;;;;;107570;285;42412;-44
2023/05/21 08:14:08;;;;;;;5.10;2.80;;;;;;;;;;107628;278;38753;-43
2023/05/21 08:16:43;;;;;;;5.60;2.70;;;;;;;;;;107618;283;39716;-43
2023/05/21 08:19:20;;;;;;;4.90;3.00;;;;;;;;;;107618;286;42837;-43
2023/05/21 08:21:55;;;;;;;5.10;2.90;;;;;;;;;;107587;286;42131;-43
2023/05/21 08:24:29;;;;;;;5.40;2.80;;;;;;;;;;107624;283;38816;-45
2023/05/21 08:27:03;;;;;;;4.70;2.90;;;;;;;;;;107604;286;39688;-46
2023/05/21 08:29:39;;;;;;;5.20;2.80;;;;;;;;;;107614;286;43027;-43
2023/05/21 08:32:13;;;;;;;5.10;2.80;;;;;;;;;;107548;283;42134;-44
2023/05/21 08:34:48;;;;;;;5.00;2.60;;;;;;;;;;107626;286;38764;-43
2023/05/21 08:37:24;;;;;;;4.80;2.80;;;;;;;;;;107589;286;39812;-43
2023/05/21 08:40:02;;;;;;;5.50;2.80;;;;;;;;;;107602;285;42867;-43
2023/05/21 08:42:45;;;;;;;4.40;2.60;;;;;;;;;;107593;283;42230;-43
2023/05/21 08:45:23;;;;;;;5.40;2.60;;;;;;;;;;107594;285;38912;-45
2023/05/21 08:48:02;;;;;;;4.40;2.60;;;;;;;;;;107507;286;175509;-44
2023/05/21 08:50:37;;;;;;;4.90;2.80;;;;;;;;;;107635;282;42873;-43
2023/05/21 08:53:14;;;;;;;5.10;3.00;;;;;;;;;;107593;286;42245;-44
2023/05/21 08:56:03;;;;;;;4.70;2.70;;;;;;;;;;107602;283;38764;-44
2023/05/21 08:58:39;;;;;;;6.10;3.10;;;;;;;;;;107621;283;40879;-44
2023/05/21 09:01:17;;;;;;;4.90;2.70;;;;;;;;;;107586;283;43230;-43
2023/05/21 09:03:54;;;;;;;4.50;2.60;;;;;;;;;;107454;286;48290;-44
2023/05/21 09:06:38;;;;;;;4.50;2.60;;;;;;;;;;107629;286;38766;-44
2023/05/21 09:09:20;;;;;;;4.90;2.80;;;;;;;;;;107613;278;39814;-44
2023/05/21 09:11:54;;;;;;;5.50;2.80;;;;;;;;;;107584;285;43228;-44
2023/05/21 09:14:31;;;;;;;5.30;2.80;;;;;;;;;;107659;278;42508;-43
2023/05/21 09:17:05;;;;;;;5.10;2.80;;;;;;;;;;107221;284;449879;-44
2023/05/21 09:19:41;;;;;;;4.80;2.70;;;;;;;;;;107664;283;39718;-44
2023/05/21 09:22:18;;;;;;;4.00;2.20;;;;;;;;;;107589;286;43341;-43
2023/05/21 09:24:55;;;;;;;5.00;2.40;;;;;;;;;;107601;286;42147;-44
2023/05/21 09:27:29;;;;;;;4.20;2.30;;;;;;;;;;107643;283;38815;-45
2023/05/21 09:30:06;;;;;;;4.50;2.20;;;;;;;;;;107638;283;40885;-43
2023/05/21 09:32:40;;;;;;;4.30;2.30;;;;;;;;;;107595;283;42982;-44
2023/05/21 09:35:16;;;;;;;5.00;2.50;;;;;;;;;;107593;286;42560;-43
2023/05/21 09:37:52;;;;;;;4.80;2.60;;;;;;;;;;107640;285;39878;-43
2023/05/21 09:40:27;;;;;;;5.10;2.40;;;;;;;;;;107599;283;39663;-45
2023/05/21 09:43:03;;;;;;;5.10;2.30;;;;;;;;;;107594;285;44284;-43
2023/05/21 09:45:39;;;;;;;4.70;2.60;;;;;;;;;;107628;283;42282;-43
2023/05/21 09:48:16;;;;;;;5.20;2.30;;;;;;;;;;107642;283;39866;-43
2023/05/21 09:50:51;;;;;;;4.40;2.50;;;;;;;;;;107635;286;39719;-43
2023/05/21 09:53:26;;;;;;;4.90;2.30;;;;;;;;;;107618;285;42650;-44
2023/05/21 09:56:05;;;;;;;5.90;2.60;;;;;;;;;;107513;285;175547;-43
2023/05/21 09:58:41;;;;;;;5.50;2.50;;;;;;;;;;107610;286;38832;-44
2023/05/21 10:01:15;;;;;;;4.50;2.30;;;;;;;;;;107634;285;40652;-43
2023/05/21 10:03:54;;;;;;;5.20;2.30;;;;;;;;;;107586;282;42975;-44
2023/05/21 10:06:31;;;;;;;4.30;2.30;;;;;;;;;;107656;286;43566;-44
2023/05/21 10:09:12;;;;;;;4.30;2.50;;;;;;;;;;107643;283;38833;-44
2023/05/21 10:11:48;;;;;;;4.20;2.40;;;;;;;;;;107616;285;40963;-44
2023/05/21 10:14:25;;;;;;;5.00;2.30;;;;;;;;;;107612;286;43011;-44
2023/05/21 10:17:01;;;;;;;4.60;2.40;;;;;;;;;;107634;282;43281;-44
2023/05/21 10:19:46;;;;;;;4.00;2.20;;;;;;;;;;107632;286;38767;-44
2023/05/21 10:22:22;;;;;;;4.60;2.30;;;;;;;;;;107612;283;39714;-43
2023/05/21 10:24:58;;;;;;;4.20;2.30;;;;;;;;;;107550;285;44469;-43
2023/05/21 10:27:33;;;;;;;4.50;2.30;;;;;;;;;;107641;282;43275;-45
2023/05/21 10:30:10;;;;;;;4.10;2.30;;;;;;;;;;107616;285;38805;-44
2023/05/21 10:32:46;;;;;;;5.20;2.60;;;;;;;;;;107654;283;41841;-43
2023/05/21 10:35:21;;;;;;;4.20;2.40;;;;;;;;;;107613;283;42952;-46
2023/05/21 10:37:55;;;;;;;4.40;2.60;;;;;;;;;;107665;283;41906;-43
2023/05/21 10:40:31;;;;;;;4.80;2.40;;;;;;;;;;107627;282;38559;-44
2023/05/21 10:43:37;;;;;;;4.30;2.50;;;;;;;;;;107615;286;39716;-44
2023/05/21 10:46:40;;;;;;;4.00;2.30;;;;;;;;;;107559;283;50617;-45
2023/05/21 10:49:54;;;;;;;4.50;2.60;;;;;;;;;;107604;283;42208;-43
2023/05/21 10:53:01;;;;;;;5.10;2.40;;;;;;;;;;107390;283;38679;-45
2023/05/21 10:55:50;;;;;;;4.60;2.50;;;;;;;;;;107464;282;175527;-44
2023/05/21 10:58:51;;;;;;;4.90;2.50;;;;;;;;;;107666;286;42869;-45
2023/05/21 11:01:28;;;;;;;4.20;2.40;;;;;;;;;;107680;283;42148;-43
2023/05/21 11:04:03;;;;;;;4.40;2.30;;;;;;;;;;107699;286;38544;-44
2023/05/21 11:06:38;;;;;;;4.20;2.50;;;;;;;;;;107626;286;39974;-44
2023/05/21 11:09:18;;;;;;;4.80;2.40;;;;;;;;;;107693;283;44321;-43
2023/05/21 11:11:57;;;;;;;5.20;2.40;;;;;;;;;;107698;283;41918;-43
2023/05/21 11:14:38;;;;;;;5.00;2.40;;;;;;;;;;107672;283;38925;-43
2023/05/21 11:17:38;;;;;;;5.60;2.70;;;;;;;;;;107556;286;176008;-44
2023/05/21 11:20:15;;;;;;;5.00;2.60;;;;;;;;;;107682;283;44053;-45
2023/05/21 11:22:52;;;;;;;4.70;2.60;;;;;;;;;;107646;286;42138;-45
2023/05/21 11:25:28;;;;;;;6.10;3.00;;;;;;;;;;107636;286;38742;-44
2023/05/21 11:28:08;;;;;;;6.00;2.80;;;;;;;;;;107654;286;39728;-44
2023/05/21 11:30:45;;;;;;;5.30;3.00;;;;;;;;;;107679;286;43392;-45
2023/05/21 11:33:22;;;;;;;5.40;2.80;;;;;;;;;;107673;286;42086;-43
2023/05/21 11:36:14;;;;;;;6.10;3.00;;;;;;;;;;107621;283;38855;-47
2023/05/21 11:39:11;;;;;;;6.50;2.90;;;;;;;;;;107577;278;40337;-45
2023/05/21 11:41:59;;;;;;;6.30;3.10;;;;;;;;;;107630;283;42882;-44
2023/05/21 11:44:45;;;;;;;6.60;3.30;;;;;;;;;;107638;286;42306;-44
2023/05/21 11:47:24;;;;;;;6.00;3.00;;;;;;;;;;107568;286;38869;-47
2023/05/21 11:50:02;;;;;;;5.50;2.90;;;;;;;;;;107628;286;39709;-43
2023/05/21 11:52:42;;;;;;;5.40;2.80;;;;;;;;;;107651;285;43992;-50
2023/05/21 11:55:21;;;;;;;7.00;3.00;;;;;;;;;;107582;286;42311;-42
2023/05/21 11:58:00;;;;;;;6.20;2.90;;;;;;;;;;107577;278;46249;-42
2023/05/21 12:00:40;;;;;;;6.20;3.10;;;;;;;;;;107598;283;39732;-42
2023/05/21 12:03:16;;;;;;;6.40;2.90;;;;;;;;;;107642;286;42878;-44
2023/05/21 12:05:52;;;;;;;6.70;2.80;;;;;;;;;;107560;287;42101;-46
2023/05/21 12:08:29;;;;;;;6.00;2.90;;;;;;;;;;107591;278;44944;-45
2023/05/21 12:11:06;;;;;;;5.40;2.80;;;;;;;;;;107566;291;39739;-43
2023/05/21 12:13:40;;;;;;;5.10;2.80;;;;;;;;;;107577;286;43126;-49
2023/05/21 12:16:15;;;;;;;5.40;3.00;;;;;;;;;;107443;286;175480;-42
2023/05/21 12:18:49;;;;;;;6.20;3.00;;;;;;;;;;107632;283;39919;-43
2023/05/21 12:21:24;;;;;;;5.60;3.00;;;;;;;;;;107489;286;39735;-42
2023/05/21 12:24:02;;;;;;;4.90;2.70;;;;;;;;;;107578;286;43894;-42
2023/05/21 12:26:37;;;;;;;4.70;2.60;;;;;;;;;;107579;286;43599;-39
2023/05/21 12:29:13;;;;;;;5.30;2.90;;;;;;;;;;107595;286;38890;-41
2023/05/21 12:31:53;;;;;;;5.40;2.50;;;;;;;;;;107610;283;39740;-43
2023/05/21 12:34:43;;;;;;;5.10;2.60;;;;;;;;;;107605;286;42787;-39
2023/05/21 12:37:24;;;;;;;5.10;2.80;;;;;;;;;;107490;286;43174;-40
2023/05/21 12:40:06;;;;;;;5.10;2.50;;;;;;;;;;107619;283;39066;-41
2023/05/21 12:42:43;;;;;;;5.30;2.40;;;;;;;;;;107575;283;39823;-37
2023/05/21 12:45:19;;;;;;;5.40;2.70;;;;;;;;;;107644;286;43221;-43
2023/05/21 12:47:55;;;;;;;5.50;2.60;;;;;;;;;;107571;286;42180;-39
2023/05/21 12:50:32;;;;;;;5.50;2.90;;;;;;;;;;107610;286;38787;-42
2023/05/21 12:53:08;;;;;;;5.90;3.50;;;;;;;;;;107617;283;39681;-41
2023/05/21 12:55:44;;;;;;;5.50;3.50;;;;;;;;;;107613;285;43039;-42
2023/05/21 12:58:23;;;;;;;6.00;3.70;;;;;;;;;;107594;282;42179;-41
2023/05/21 13:01:00;;;;;;;5.90;3.60;;;;;;;;;;107583;282;38843;-42
2023/05/21 13:03:38;;;;;;;5.80;3.50;;;;;;;;;;107631;283;39835;-43
2023/05/21 13:06:14;;;;;;;5.80;3.70;;;;;;;;;;107639;278;42871;-43
2023/05/21 13:08:48;;;;;;;5.30;3.40;;;;;;;;;;107563;282;42142;-41
2023/05/21 13:11:22;;;;;;;5.20;3.40;;;;;;;;;;107561;283;38759;-42
2023/05/21 13:13:57;;;;;;;6.10;3.40;;;;;;;;;;107594;281;39721;-42
2023/05/21 13:16:33;;;;;;;5.20;3.10;;;;;;;;;;107632;286;42977;-38
2023/05/21 13:19:07;;;;;;;6.00;3.30;;;;;;;;;;107554;286;42335;-37
2023/05/21 13:21:42;;;;;;;6.10;3.20;;;;;;;;;;107598;286;38520;-38
2023/05/21 13:24:17;;;;;;;6.20;3.30;;;;;;;;;;107613;283;39772;-38
2023/05/21 13:26:51;;;;;;;5.90;3.30;;;;;;;;;;107456;283;175454;-38
2023/05/21 13:29:30;;;;;;;4.50;2.90;;;;;;;;;;107482;283;42247;-37
2023/05/21 13:32:04;;;;;;;5.60;3.10;;;;;;;;;;107562;286;38721;-38
2023/05/21 13:34:38;;;;;;;5.20;3.00;;;;;;;;;;107617;283;42277;-38
2023/05/21 13:37:12;;;;;;;5.20;3.10;;;;;;;;;;106926;286;892030;-37
2023/05/21 13:39:49;;;;;;;5.30;3.00;;;;;;;;;;107550;282;42390;-38
2023/05/21 13:42:23;;;;;;;4.90;2.80;;;;;;;;;;107604;282;38820;-38
2023/05/21 13:44:57;;;;;;;5.20;2.80;;;;;;;;;;107600;283;39496;-38
2023/05/21 13:47:30;;;;;;;5.00;2.80;;;;;;;;;;107612;286;42890;-38
2023/05/21 13:50:07;;;;;;;4.50;2.50;;;;;;;;;;107535;278;43255;-38
2023/05/21 13:52:41;;;;;;;4.70;2.70;;;;;;;;;;107469;284;40013;-38
2023/05/21 13:55:15;;;;;;;4.70;2.50;;;;;;;;;;107530;286;175515;-38
2023/05/21 13:57:49;;;;;;;5.00;2.70;;;;;;;;;;107582;283;44550;-38
2023/05/21 14:00:24;;;;;;;4.70;2.70;;;;;;;;;;107566;283;42211;-38
2023/05/21 14:03:00;;;;;;;4.50;2.30;;;;;;;;;;107571;283;39889;-38
2023/05/21 14:05:35;;;;;;;5.20;2.60;;;;;;;;;;107570;285;39744;-38
2023/05/21 14:08:11;;;;;;;4.40;2.60;;;;;;;;;;107617;282;42618;-37
2023/05/21 14:10:47;;;;;;;4.70;2.50;;;;;;;;;;107680;283;47876;-37
2023/05/21 14:13:21;;;;;;;5.90;2.90;;;;;;;;;;107528;279;40081;-37
2023/05/21 14:15:55;;;;;;;4.80;2.60;;;;;;;;;;107614;283;39778;-38
2023/05/21 14:18:29;;;;;;;4.30;2.40;;;;;;;;;;107524;286;195939;-38
2023/05/21 14:21:03;;;;;;;4.70;2.40;;;;;;;;;;107703;286;49370;-37
2023/05/21 14:23:37;;;;;;;5.00;2.50;;;;;;;;;;107587;283;38604;-37
2023/05/21 14:26:11;;;;;;;4.30;2.30;;;;;;;;;;107570;287;39724;-37
2023/05/21 14:28:47;;;;;;;4.40;2.60;;;;;;;;;;107599;283;42859;-38
2023/05/21 14:31:22;;;;;;;4.90;2.30;;;;;;;;;;107475;287;50250;-37
2023/05/21 14:33:55;;;;;;;4.10;2.30;;;;;;;;;;107616;283;39944;-38
2023/05/21 14:36:29;;;;;;;4.40;2.40;;;;;;;;;;107577;286;40021;-37
2023/05/21 14:39:05;;;;;;;4.60;2.40;;;;;;;;;;107574;283;42664;-38
2023/05/21 14:41:43;;;;;;;4.60;2.50;;;;;;;;;;107573;283;47893;-38
2023/05/21 14:44:20;;;;;;;3.90;2.10;;;;;;;;;;107581;283;38798;-37
2023/05/21 14:46:56;;;;;;;4.00;2.30;;;;;;;;;;107574;283;39711;-38
2023/05/21 14:49:29;;;;;;;4.10;2.20;;;;;;;;;;107604;283;42868;-38
2023/05/21 14:52:05;;;;;;;4.30;2.40;;;;;;;;;;107583;283;42142;-37
2023/05/21 14:54:40;;;;;;;4.80;2.40;;;;;;;;;;107571;283;38891;-35
2023/05/21 14:57:13;;;;;;;4.10;2.20;;;;;;;;;;107631;286;40127;-37
2023/05/21 14:59:48;;;;;;;4.20;2.10;;;;;;;;;;107560;283;42975;-38
2023/05/21 15:02:23;;;;;;;4.10;2.40;;;;;;;;;;107633;286;47980;-37
2023/05/21 15:04:59;;;;;;;4.00;2.10;;;;;;;;;;107631;291;38584;-38
2023/05/21 15:07:35;;;;;;;4.10;2.20;;;;;;;;;;107638;283;39906;-37
2023/05/21 15:10:11;;;;;;;4.70;2.20;;;;;;;;;;107640;286;42936;-38
2023/05/21 15:12:47;;;;;;;4.50;2.40;;;;;;;;;;107602;286;49366;-37
2023/05/21 15:15:23;;;;;;;4.60;2.20;;;;;;;;;;107664;283;38947;-37
2023/05/21 15:18:02;;;;;;;4.60;2.20;;;;;;;;;;107639;286;39889;-38
2023/05/21 15:20:42;;;;;;;3.90;2.20;;;;;;;;;;107615;285;42983;-37
2023/05/21 15:23:16;;;;;;;4.30;2.10;;;;;;;;;;107496;286;42194;-37
2023/05/21 15:25:50;;;;;;;4.30;2.10;;;;;;;;;;107637;286;39021;-37
2023/05/21 15:28:27;;;;;;;4.10;2.10;;;;;;;;;;107663;286;39852;-38
2023/05/21 15:31:03;;;;;;;4.20;2.20;;;;;;;;;;107589;286;42825;-37
2023/05/21 15:33:41;;;;;;;4.30;1.90;;;;;;;;;;107634;286;41878;-38
2023/05/21 15:36:16;;;;;;;3.90;2.00;;;;;;;;;;107628;285;38985;-38
2023/05/21 15:38:50;;;;;;;4.00;1.90;;;;;;;;;;107653;286;39782;-37
2023/05/21 15:41:27;;;;;;;4.40;2.10;;;;;;;;;;107479;286;42888;-37